sensor_id;sensor_type;location;lat;lon;timestamp;P1;durP1;ratioP1;P2;durP2;ratioP2
11598;SDS011;5855;48.840;9.188;2022-07-18T00:02:17;4.75;;;2.03;;
11598;SDS011;5855;48.840;9.188;2022-07-18T00:04:44;2.78;;;2.10;;
11598;SDS011;5855;48.840;9.188;2022-07-18T00:07:11;7.05;;;2.22;;
11598;SDS011;5855;48.840;9.188;2022-07-18T00:09:38;3.05;;;2.00;;
11598;SDS011;5855;48.840;9.188;2022-07-18T00:12:06;5.60;;;2.25;;
11598;SDS011;5855;48.840;9.188;2022-07-18T00:14:34;2.55;;;2.00;;
11598;SDS011;5855;48.840;9.188;2022-07-18T00:17:04;4.35;;;2.47;;
11598;SDS011;5855;48.840;9.188;2022-07-18T00:19:31;3.28;;;2.00;;
11598;SDS011;5855;48.840;9.188;2022-07-18T00:21:58;4.47;;;2.30;;
11598;SDS011;5855;48.840;9.188;2022-07-18T00:24:26;6.35;;;2.20;;
11598;SDS011;5855;48.840;9.188;2022-07-18T00:26:53;3.53;;;2.17;;
11598;SDS011;5855;48.840;9.188;2022-07-18T00:29:20;3.40;;;2.15;;
11598;SDS011;5855;48.840;9.188;2022-07-18T00:31:46;3.95;;;2.15;;
11598;SDS011;5855;48.840;9.188;2022-07-18T00:34:15;4.30;;;2.22;;
11598;SDS011;5855;48.840;9.188;2022-07-18T00:36:42;6.00;;;2.38;;
11598;SDS011;5855;48.840;9.188;2022-07-18T00:39:09;5.68;;;2.60;;
11598;SDS011;5855;48.840;9.188;2022-07-18T00:41:36;5.63;;;2.35;;
11598;SDS011;5855;48.840;9.188;2022-07-18T00:44:03;2.58;;;2.00;;
11598;SDS011;5855;48.840;9.188;2022-07-18T00:46:30;2.30;;;2.10;;
11598;SDS011;5855;48.840;9.188;2022-07-18T00:48:57;3.55;;;2.40;;
11598;SDS011;5855;48.840;9.188;2022-07-18T00:51:25;3.53;;;2.08;;
11598;SDS011;5855;48.840;9.188;2022-07-18T00:53:52;5.95;;;2.33;;
11598;SDS011;5855;48.840;9.188;2022-07-18T00:56:19;3.40;;;2.17;;
11598;SDS011;5855;48.840;9.188;2022-07-18T00:58:46;4.60;;;2.10;;
11598;SDS011;5855;48.840;9.188;2022-07-18T01:01:13;2.25;;;1.70;;
11598;SDS011;5855;48.840;9.188;2022-07-18T01:03:58;5.03;;;2.10;;
11598;SDS011;5855;48.840;9.188;2022-07-18T01:06:26;3.33;;;2.30;;
11598;SDS011;5855;48.840;9.188;2022-07-18T01:08:53;2.58;;;2.17;;
11598;SDS011;5855;48.840;9.188;2022-07-18T01:11:20;5.95;;;2.15;;
11598;SDS011;5855;48.840;9.188;2022-07-18T01:13:47;3.35;;;2.40;;
11598;SDS011;5855;48.840;9.188;2022-07-18T01:16:14;3.38;;;2.17;;
11598;SDS011;5855;48.840;9.188;2022-07-18T01:18:46;2.90;;;1.90;;
11598;SDS011;5855;48.840;9.188;2022-07-18T01:21:15;3.15;;;1.80;;
11598;SDS011;5855;48.840;9.188;2022-07-18T01:23:42;2.75;;;1.75;;
11598;SDS011;5855;48.840;9.188;2022-07-18T01:26:09;2.55;;;1.80;;
11598;SDS011;5855;48.840;9.188;2022-07-18T01:28:37;2.78;;;1.83;;
11598;SDS011;5855;48.840;9.188;2022-07-18T01:31:05;2.45;;;2.03;;
11598;SDS011;5855;48.840;9.188;2022-07-18T01:33:32;3.72;;;2.17;;
11598;SDS011;5855;48.840;9.188;2022-07-18T01:36:00;8.57;;;1.92;;
11598;SDS011;5855;48.840;9.188;2022-07-18T01:38:29;3.88;;;1.80;;
11598;SDS011;5855;48.840;9.188;2022-07-18T01:40:57;4.50;;;2.33;;
11598;SDS011;5855;48.840;9.188;2022-07-18T01:43:25;5.82;;;2.33;;
11598;SDS011;5855;48.840;9.188;2022-07-18T01:45:52;2.85;;;2.38;;
11598;SDS011;5855;48.840;9.188;2022-07-18T01:48:20;3.50;;;2.05;;
11598;SDS011;5855;48.840;9.188;2022-07-18T01:50:48;3.90;;;2.03;;
11598;SDS011;5855;48.840;9.188;2022-07-18T01:53:15;3.13;;;2.40;;
11598;SDS011;5855;48.840;9.188;2022-07-18T01:55:44;2.72;;;2.20;;
11598;SDS011;5855;48.840;9.188;2022-07-18T01:58:11;2.97;;;2.17;;
11598;SDS011;5855;48.840;9.188;2022-07-18T02:00:37;4.20;;;2.55;;
11598;SDS011;5855;48.840;9.188;2022-07-18T02:03:04;3.20;;;1.95;;
11598;SDS011;5855;48.840;9.188;2022-07-18T02:05:31;2.55;;;2.20;;
11598;SDS011;5855;48.840;9.188;2022-07-18T02:07:58;3.60;;;2.10;;
11598;SDS011;5855;48.840;9.188;2022-07-18T02:10:25;2.72;;;2.25;;
11598;SDS011;5855;48.840;9.188;2022-07-18T02:12:53;2.90;;;2.10;;
11598;SDS011;5855;48.840;9.188;2022-07-18T02:15:20;2.45;;;2.15;;
11598;SDS011;5855;48.840;9.188;2022-07-18T02:17:47;5.13;;;1.85;;
11598;SDS011;5855;48.840;9.188;2022-07-18T02:20:14;3.70;;;2.05;;
11598;SDS011;5855;48.840;9.188;2022-07-18T02:22:41;6.20;;;2.00;;
11598;SDS011;5855;48.840;9.188;2022-07-18T02:25:08;5.50;;;2.60;;
11598;SDS011;5855;48.840;9.188;2022-07-18T02:27:36;3.08;;;2.40;;
11598;SDS011;5855;48.840;9.188;2022-07-18T02:30:05;2.80;;;2.22;;
11598;SDS011;5855;48.840;9.188;2022-07-18T02:32:34;3.38;;;2.47;;
11598;SDS011;5855;48.840;9.188;2022-07-18T02:35:02;5.05;;;2.20;;
11598;SDS011;5855;48.840;9.188;2022-07-18T02:37:30;5.40;;;2.30;;
11598;SDS011;5855;48.840;9.188;2022-07-18T02:39:57;3.63;;;2.33;;
11598;SDS011;5855;48.840;9.188;2022-07-18T02:42:24;3.85;;;2.20;;
11598;SDS011;5855;48.840;9.188;2022-07-18T02:44:50;5.53;;;2.25;;
11598;SDS011;5855;48.840;9.188;2022-07-18T02:47:19;3.78;;;1.95;;
11598;SDS011;5855;48.840;9.188;2022-07-18T02:49:46;3.42;;;2.10;;
11598;SDS011;5855;48.840;9.188;2022-07-18T02:52:13;2.92;;;2.40;;
11598;SDS011;5855;48.840;9.188;2022-07-18T02:54:39;3.90;;;2.33;;
11598;SDS011;5855;48.840;9.188;2022-07-18T02:57:06;5.22;;;2.38;;
11598;SDS011;5855;48.840;9.188;2022-07-18T02:59:33;5.60;;;2.30;;
11598;SDS011;5855;48.840;9.188;2022-07-18T03:02:00;6.97;;;2.72;;
11598;SDS011;5855;48.840;9.188;2022-07-18T03:04:29;4.22;;;3.08;;
11598;SDS011;5855;48.840;9.188;2022-07-18T03:06:56;3.03;;;2.58;;
11598;SDS011;5855;48.840;9.188;2022-07-18T03:09:23;4.82;;;2.45;;
11598;SDS011;5855;48.840;9.188;2022-07-18T03:11:52;4.32;;;2.30;;
11598;SDS011;5855;48.840;9.188;2022-07-18T03:14:19;3.35;;;2.53;;
11598;SDS011;5855;48.840;9.188;2022-07-18T03:16:46;4.97;;;2.58;;
11598;SDS011;5855;48.840;9.188;2022-07-18T03:19:13;4.72;;;2.40;;
11598;SDS011;5855;48.840;9.188;2022-07-18T03:21:41;4.63;;;2.63;;
11598;SDS011;5855;48.840;9.188;2022-07-18T03:24:08;4.25;;;2.60;;
11598;SDS011;5855;48.840;9.188;2022-07-18T03:26:36;2.92;;;2.35;;
11598;SDS011;5855;48.840;9.188;2022-07-18T03:29:03;5.07;;;2.53;;
11598;SDS011;5855;48.840;9.188;2022-07-18T03:31:30;3.72;;;2.08;;
11598;SDS011;5855;48.840;9.188;2022-07-18T03:33:57;3.97;;;2.08;;
11598;SDS011;5855;48.840;9.188;2022-07-18T03:36:24;2.53;;;2.22;;
11598;SDS011;5855;48.840;9.188;2022-07-18T03:38:53;3.13;;;2.30;;
11598;SDS011;5855;48.840;9.188;2022-07-18T03:41:19;6.07;;;2.20;;
11598;SDS011;5855;48.840;9.188;2022-07-18T03:43:46;4.43;;;2.22;;
11598;SDS011;5855;48.840;9.188;2022-07-18T03:46:13;4.85;;;2.17;;
11598;SDS011;5855;48.840;9.188;2022-07-18T03:48:40;4.80;;;2.35;;
11598;SDS011;5855;48.840;9.188;2022-07-18T03:51:07;3.83;;;2.33;;
11598;SDS011;5855;48.840;9.188;2022-07-18T03:53:34;3.25;;;2.30;;
11598;SDS011;5855;48.840;9.188;2022-07-18T03:56:02;4.28;;;2.50;;
11598;SDS011;5855;48.840;9.188;2022-07-18T03:58:29;4.47;;;2.58;;
11598;SDS011;5855;48.840;9.188;2022-07-18T04:00:56;5.38;;;2.85;;
11598;SDS011;5855;48.840;9.188;2022-07-18T04:03:23;8.40;;;2.30;;
11598;SDS011;5855;48.840;9.188;2022-07-18T04:05:50;3.85;;;2.92;;
11598;SDS011;5855;48.840;9.188;2022-07-18T04:08:17;5.70;;;2.75;;
11598;SDS011;5855;48.840;9.188;2022-07-18T04:10:44;6.18;;;3.03;;
11598;SDS011;5855;48.840;9.188;2022-07-18T04:13:12;5.35;;;2.60;;
11598;SDS011;5855;48.840;9.188;2022-07-18T04:15:39;4.13;;;2.53;;
11598;SDS011;5855;48.840;9.188;2022-07-18T04:18:07;5.45;;;2.65;;
11598;SDS011;5855;48.840;9.188;2022-07-18T04:20:34;5.22;;;2.90;;
11598;SDS011;5855;48.840;9.188;2022-07-18T04:23:04;4.40;;;2.97;;
11598;SDS011;5855;48.840;9.188;2022-07-18T04:25:33;5.78;;;2.65;;
11598;SDS011;5855;48.840;9.188;2022-07-18T04:28:01;4.88;;;2.70;;
11598;SDS011;5855;48.840;9.188;2022-07-18T04:30:29;4.28;;;2.72;;
11598;SDS011;5855;48.840;9.188;2022-07-18T04:32:56;6.65;;;2.50;;
11598;SDS011;5855;48.840;9.188;2022-07-18T04:35:24;6.78;;;3.10;;
11598;SDS011;5855;48.840;9.188;2022-07-18T04:37:51;5.72;;;3.17;;
11598;SDS011;5855;48.840;9.188;2022-07-18T04:40:18;5.90;;;2.90;;
11598;SDS011;5855;48.840;9.188;2022-07-18T04:42:45;7.32;;;3.40;;
11598;SDS011;5855;48.840;9.188;2022-07-18T04:45:12;3.92;;;2.72;;
11598;SDS011;5855;48.840;9.188;2022-07-18T04:47:41;8.68;;;2.90;;
11598;SDS011;5855;48.840;9.188;2022-07-18T04:50:08;6.18;;;2.88;;
11598;SDS011;5855;48.840;9.188;2022-07-18T04:52:36;3.28;;;2.58;;
11598;SDS011;5855;48.840;9.188;2022-07-18T04:55:04;4.38;;;2.80;;
11598;SDS011;5855;48.840;9.188;2022-07-18T04:57:33;4.78;;;2.50;;
11598;SDS011;5855;48.840;9.188;2022-07-18T05:00:00;6.28;;;2.97;;
11598;SDS011;5855;48.840;9.188;2022-07-18T05:02:27;4.70;;;2.97;;
11598;SDS011;5855;48.840;9.188;2022-07-18T05:04:55;6.10;;;3.15;;
11598;SDS011;5855;48.840;9.188;2022-07-18T05:07:22;3.92;;;2.90;;
11598;SDS011;5855;48.840;9.188;2022-07-18T05:09:49;5.38;;;2.80;;
11598;SDS011;5855;48.840;9.188;2022-07-18T05:12:16;7.28;;;2.97;;
11598;SDS011;5855;48.840;9.188;2022-07-18T05:14:44;3.33;;;2.60;;
11598;SDS011;5855;48.840;9.188;2022-07-18T05:17:10;5.38;;;2.70;;
11598;SDS011;5855;48.840;9.188;2022-07-18T05:19:37;6.38;;;2.80;;
11598;SDS011;5855;48.840;9.188;2022-07-18T05:22:05;6.95;;;3.05;;
11598;SDS011;5855;48.840;9.188;2022-07-18T05:24:32;5.18;;;2.72;;
11598;SDS011;5855;48.840;9.188;2022-07-18T05:26:59;7.68;;;3.53;;
11598;SDS011;5855;48.840;9.188;2022-07-18T05:29:26;4.78;;;2.55;;
11598;SDS011;5855;48.840;9.188;2022-07-18T05:31:53;3.80;;;3.03;;
11598;SDS011;5855;48.840;9.188;2022-07-18T05:34:20;4.53;;;2.55;;
11598;SDS011;5855;48.840;9.188;2022-07-18T05:36:47;4.38;;;2.42;;
11598;SDS011;5855;48.840;9.188;2022-07-18T05:39:15;5.55;;;2.85;;
11598;SDS011;5855;48.840;9.188;2022-07-18T05:41:42;6.05;;;3.10;;
11598;SDS011;5855;48.840;9.188;2022-07-18T05:44:08;4.65;;;2.67;;
11598;SDS011;5855;48.840;9.188;2022-07-18T05:46:35;7.15;;;3.25;;
11598;SDS011;5855;48.840;9.188;2022-07-18T05:49:02;3.60;;;2.63;;
11598;SDS011;5855;48.840;9.188;2022-07-18T05:51:29;5.82;;;3.08;;
11598;SDS011;5855;48.840;9.188;2022-07-18T05:53:56;4.82;;;2.67;;
11598;SDS011;5855;48.840;9.188;2022-07-18T05:56:24;4.40;;;2.92;;
11598;SDS011;5855;48.840;9.188;2022-07-18T05:58:51;6.18;;;2.75;;
11598;SDS011;5855;48.840;9.188;2022-07-18T06:01:18;7.68;;;2.90;;
11598;SDS011;5855;48.840;9.188;2022-07-18T06:03:45;7.20;;;2.90;;
11598;SDS011;5855;48.840;9.188;2022-07-18T06:06:12;5.78;;;2.78;;
11598;SDS011;5855;48.840;9.188;2022-07-18T06:08:39;7.13;;;3.03;;
11598;SDS011;5855;48.840;9.188;2022-07-18T06:11:06;6.28;;;3.00;;
11598;SDS011;5855;48.840;9.188;2022-07-18T06:13:35;6.85;;;2.90;;
11598;SDS011;5855;48.840;9.188;2022-07-18T06:16:04;3.33;;;2.90;;
11598;SDS011;5855;48.840;9.188;2022-07-18T06:18:32;3.38;;;2.53;;
11598;SDS011;5855;48.840;9.188;2022-07-18T06:21:00;4.40;;;2.83;;
11598;SDS011;5855;48.840;9.188;2022-07-18T06:23:27;3.00;;;2.58;;
11598;SDS011;5855;48.840;9.188;2022-07-18T06:25:54;8.70;;;2.78;;
11598;SDS011;5855;48.840;9.188;2022-07-18T06:28:21;8.95;;;3.08;;
11598;SDS011;5855;48.840;9.188;2022-07-18T06:30:49;3.22;;;2.45;;
11598;SDS011;5855;48.840;9.188;2022-07-18T06:33:16;6.05;;;2.80;;
11598;SDS011;5855;48.840;9.188;2022-07-18T06:35:43;7.32;;;2.70;;
11598;SDS011;5855;48.840;9.188;2022-07-18T06:38:11;7.63;;;2.38;;
11598;SDS011;5855;48.840;9.188;2022-07-18T06:40:38;3.63;;;2.58;;
11598;SDS011;5855;48.840;9.188;2022-07-18T06:43:05;3.90;;;2.50;;
11598;SDS011;5855;48.840;9.188;2022-07-18T06:45:32;6.93;;;2.78;;
11598;SDS011;5855;48.840;9.188;2022-07-18T06:48:00;5.28;;;2.50;;
11598;SDS011;5855;48.840;9.188;2022-07-18T06:50:27;4.85;;;2.53;;
11598;SDS011;5855;48.840;9.188;2022-07-18T06:52:54;3.95;;;2.50;;
11598;SDS011;5855;48.840;9.188;2022-07-18T06:55:21;6.35;;;2.67;;
11598;SDS011;5855;48.840;9.188;2022-07-18T06:57:48;5.70;;;2.20;;
11598;SDS011;5855;48.840;9.188;2022-07-18T07:00:15;4.88;;;2.42;;
11598;SDS011;5855;48.840;9.188;2022-07-18T07:02:42;5.43;;;2.80;;
11598;SDS011;5855;48.840;9.188;2022-07-18T07:05:12;5.03;;;2.58;;
11598;SDS011;5855;48.840;9.188;2022-07-18T07:07:40;4.57;;;2.40;;
11598;SDS011;5855;48.840;9.188;2022-07-18T07:10:07;3.75;;;2.38;;
11598;SDS011;5855;48.840;9.188;2022-07-18T07:12:38;4.25;;;2.50;;
11598;SDS011;5855;48.840;9.188;2022-07-18T07:15:06;7.18;;;2.70;;
11598;SDS011;5855;48.840;9.188;2022-07-18T07:17:34;7.47;;;2.70;;
11598;SDS011;5855;48.840;9.188;2022-07-18T07:20:01;4.85;;;2.50;;
11598;SDS011;5855;48.840;9.188;2022-07-18T07:22:30;8.00;;;2.85;;
11598;SDS011;5855;48.840;9.188;2022-07-18T07:24:57;6.35;;;2.70;;
11598;SDS011;5855;48.840;9.188;2022-07-18T07:27:24;4.57;;;2.50;;
11598;SDS011;5855;48.840;9.188;2022-07-18T07:29:51;7.82;;;2.60;;
11598;SDS011;5855;48.840;9.188;2022-07-18T07:32:17;3.65;;;2.25;;
11598;SDS011;5855;48.840;9.188;2022-07-18T07:34:44;4.63;;;2.33;;
11598;SDS011;5855;48.840;9.188;2022-07-18T07:37:11;6.10;;;2.78;;
11598;SDS011;5855;48.840;9.188;2022-07-18T07:39:39;4.05;;;2.47;;
11598;SDS011;5855;48.840;9.188;2022-07-18T07:42:06;7.80;;;2.60;;
11598;SDS011;5855;48.840;9.188;2022-07-18T07:44:33;4.72;;;2.53;;
11598;SDS011;5855;48.840;9.188;2022-07-18T07:47:00;5.63;;;2.40;;
11598;SDS011;5855;48.840;9.188;2022-07-18T07:49:27;4.38;;;2.42;;
11598;SDS011;5855;48.840;9.188;2022-07-18T07:51:58;3.75;;;2.28;;
11598;SDS011;5855;48.840;9.188;2022-07-18T07:54:25;6.75;;;2.58;;
11598;SDS011;5855;48.840;9.188;2022-07-18T07:56:53;7.07;;;2.30;;
11598;SDS011;5855;48.840;9.188;2022-07-18T07:59:20;4.90;;;2.35;;
11598;SDS011;5855;48.840;9.188;2022-07-18T08:01:47;8.40;;;2.42;;
11598;SDS011;5855;48.840;9.188;2022-07-18T08:04:14;8.07;;;2.20;;
11598;SDS011;5855;48.840;9.188;2022-07-18T08:06:41;5.13;;;1.95;;
11598;SDS011;5855;48.840;9.188;2022-07-18T08:09:08;10.48;;;2.35;;
11598;SDS011;5855;48.840;9.188;2022-07-18T08:11:35;4.38;;;2.25;;
11598;SDS011;5855;48.840;9.188;2022-07-18T08:14:03;7.18;;;2.08;;
11598;SDS011;5855;48.840;9.188;2022-07-18T08:16:30;6.85;;;2.00;;
11598;SDS011;5855;48.840;9.188;2022-07-18T08:18:57;5.38;;;1.90;;
11598;SDS011;5855;48.840;9.188;2022-07-18T08:21:24;3.50;;;1.63;;
11598;SDS011;5855;48.840;9.188;2022-07-18T08:23:51;5.53;;;1.90;;
11598;SDS011;5855;48.840;9.188;2022-07-18T08:26:18;5.05;;;1.67;;
11598;SDS011;5855;48.840;9.188;2022-07-18T08:28:45;3.88;;;1.90;;
11598;SDS011;5855;48.840;9.188;2022-07-18T08:31:14;3.88;;;1.60;;
11598;SDS011;5855;48.840;9.188;2022-07-18T08:33:41;5.05;;;1.92;;
11598;SDS011;5855;48.840;9.188;2022-07-18T08:36:08;2.90;;;1.50;;
11598;SDS011;5855;48.840;9.188;2022-07-18T08:38:35;3.45;;;1.48;;
11598;SDS011;5855;48.840;9.188;2022-07-18T08:41:02;3.10;;;1.88;;
11598;SDS011;5855;48.840;9.188;2022-07-18T08:43:30;4.18;;;1.50;;
11598;SDS011;5855;48.840;9.188;2022-07-18T08:46:00;3.35;;;1.63;;
11598;SDS011;5855;48.840;9.188;2022-07-18T08:48:30;1.67;;;1.48;;
11598;SDS011;5855;48.840;9.188;2022-07-18T08:50:58;3.75;;;1.45;;
11598;SDS011;5855;48.840;9.188;2022-07-18T08:53:27;2.33;;;1.60;;
11598;SDS011;5855;48.840;9.188;2022-07-18T08:55:54;1.75;;;1.50;;
11598;SDS011;5855;48.840;9.188;2022-07-18T08:58:21;2.55;;;1.63;;
11598;SDS011;5855;48.840;9.188;2022-07-18T09:00:48;5.32;;;1.63;;
11598;SDS011;5855;48.840;9.188;2022-07-18T09:03:15;3.50;;;1.67;;
11598;SDS011;5855;48.840;9.188;2022-07-18T09:05:43;3.45;;;1.60;;
11598;SDS011;5855;48.840;9.188;2022-07-18T09:08:10;1.50;;;1.40;;
11598;SDS011;5855;48.840;9.188;2022-07-18T09:10:41;2.70;;;1.48;;
11598;SDS011;5855;48.840;9.188;2022-07-18T09:13:13;1.33;;;1.23;;
11598;SDS011;5855;48.840;9.188;2022-07-18T09:15:55;2.63;;;1.70;;
11598;SDS011;5855;48.840;9.188;2022-07-18T09:18:25;3.20;;;1.30;;
11598;SDS011;5855;48.840;9.188;2022-07-18T09:20:58;1.45;;;1.35;;
11598;SDS011;5855;48.840;9.188;2022-07-18T09:23:27;1.65;;;1.23;;
11598;SDS011;5855;48.840;9.188;2022-07-18T09:25:55;1.58;;;1.30;;
11598;SDS011;5855;48.840;9.188;2022-07-18T09:28:22;4.05;;;1.58;;
11598;SDS011;5855;48.840;9.188;2022-07-18T09:30:49;3.38;;;1.20;;
11598;SDS011;5855;48.840;9.188;2022-07-18T09:33:16;4.95;;;1.50;;
11598;SDS011;5855;48.840;9.188;2022-07-18T09:35:46;1.38;;;1.27;;
11598;SDS011;5855;48.840;9.188;2022-07-18T09:38:16;3.38;;;1.58;;
11598;SDS011;5855;48.840;9.188;2022-07-18T09:40:44;2.38;;;1.38;;
11598;SDS011;5855;48.840;9.188;2022-07-18T09:43:13;1.83;;;1.35;;
11598;SDS011;5855;48.840;9.188;2022-07-18T09:45:42;2.13;;;1.17;;
11598;SDS011;5855;48.840;9.188;2022-07-18T09:48:12;1.30;;;1.20;;
11598;SDS011;5855;48.840;9.188;2022-07-18T09:50:41;1.63;;;1.17;;
11598;SDS011;5855;48.840;9.188;2022-07-18T09:53:17;1.40;;;1.02;;
11598;SDS011;5855;48.840;9.188;2022-07-18T09:55:48;3.35;;;1.20;;
11598;SDS011;5855;48.840;9.188;2022-07-18T09:58:18;1.63;;;1.30;;
11598;SDS011;5855;48.840;9.188;2022-07-18T10:00:45;2.05;;;1.20;;
11598;SDS011;5855;48.840;9.188;2022-07-18T10:03:13;2.83;;;1.10;;
11598;SDS011;5855;48.840;9.188;2022-07-18T10:05:41;1.85;;;1.23;;
11598;SDS011;5855;48.840;9.188;2022-07-18T10:08:10;1.50;;;1.40;;
11598;SDS011;5855;48.840;9.188;2022-07-18T10:10:40;3.92;;;1.40;;
11598;SDS011;5855;48.840;9.188;2022-07-18T10:13:08;1.65;;;1.20;;
11598;SDS011;5855;48.840;9.188;2022-07-18T10:15:35;1.73;;;1.30;;
11598;SDS011;5855;48.840;9.188;2022-07-18T10:18:03;1.17;;;1.08;;
11598;SDS011;5855;48.840;9.188;2022-07-18T10:20:32;1.92;;;1.40;;
11598;SDS011;5855;48.840;9.188;2022-07-18T10:23:13;2.97;;;1.40;;
11598;SDS011;5855;48.840;9.188;2022-07-18T10:25:44;1.30;;;1.17;;
11598;SDS011;5855;48.840;9.188;2022-07-18T10:28:29;2.17;;;1.20;;
11598;SDS011;5855;48.840;9.188;2022-07-18T10:30:56;1.48;;;1.20;;
11598;SDS011;5855;48.840;9.188;2022-07-18T10:33:40;2.22;;;1.50;;
11598;SDS011;5855;48.840;9.188;2022-07-18T10:36:09;2.13;;;1.30;;
11598;SDS011;5855;48.840;9.188;2022-07-18T10:39:03;2.75;;;1.30;;
11598;SDS011;5855;48.840;9.188;2022-07-18T10:41:32;1.50;;;1.10;;
11598;SDS011;5855;48.840;9.188;2022-07-18T10:43:59;2.65;;;1.00;;
11598;SDS011;5855;48.840;9.188;2022-07-18T10:47:03;1.60;;;1.10;;
11598;SDS011;5855;48.840;9.188;2022-07-18T10:52:55;2.97;;;1.40;;
11598;SDS011;5855;48.840;9.188;2022-07-18T10:55:26;1.42;;;1.10;;
11598;SDS011;5855;48.840;9.188;2022-07-18T10:58:16;2.85;;;1.10;;
11598;SDS011;5855;48.840;9.188;2022-07-18T11:00:45;1.65;;;1.30;;
11598;SDS011;5855;48.840;9.188;2022-07-18T11:03:15;2.58;;;1.20;;
11598;SDS011;5855;48.840;9.188;2022-07-18T11:05:44;1.05;;;1.00;;
11598;SDS011;5855;48.840;9.188;2022-07-18T11:08:15;1.23;;;1.13;;
11598;SDS011;5855;48.840;9.188;2022-07-18T11:11:03;1.08;;;1.02;;
11598;SDS011;5855;48.840;9.188;2022-07-18T11:13:40;1.73;;;1.15;;
11598;SDS011;5855;48.840;9.188;2022-07-18T11:16:14;1.77;;;1.20;;
11598;SDS011;5855;48.840;9.188;2022-07-18T11:21:42;3.50;;;1.10;;
11598;SDS011;5855;48.840;9.188;2022-07-18T11:24:10;2.42;;;1.10;;
11598;SDS011;5855;48.840;9.188;2022-07-18T11:26:38;3.40;;;1.20;;
11598;SDS011;5855;48.840;9.188;2022-07-18T11:29:12;2.65;;;1.10;;
11598;SDS011;5855;48.840;9.188;2022-07-18T11:31:43;2.15;;;1.10;;
11598;SDS011;5855;48.840;9.188;2022-07-18T11:34:12;2.88;;;1.10;;
11598;SDS011;5855;48.840;9.188;2022-07-18T11:36:40;1.27;;;1.02;;
11598;SDS011;5855;48.840;9.188;2022-07-18T11:39:10;1.50;;;1.13;;
11598;SDS011;5855;48.840;9.188;2022-07-18T11:41:37;1.45;;;1.30;;
11598;SDS011;5855;48.840;9.188;2022-07-18T11:44:10;1.42;;;1.10;;
11598;SDS011;5855;48.840;9.188;2022-07-18T11:46:45;2.35;;;1.13;;
11598;SDS011;5855;48.840;9.188;2022-07-18T11:49:12;2.35;;;1.02;;
11598;SDS011;5855;48.840;9.188;2022-07-18T11:51:39;4.30;;;1.08;;
11598;SDS011;5855;48.840;9.188;2022-07-18T11:54:07;1.75;;;1.00;;
11598;SDS011;5855;48.840;9.188;2022-07-18T11:56:44;1.40;;;1.10;;
11598;SDS011;5855;48.840;9.188;2022-07-18T11:59:13;1.73;;;1.00;;
11598;SDS011;5855;48.840;9.188;2022-07-18T12:01:42;1.52;;;1.10;;
11598;SDS011;5855;48.840;9.188;2022-07-18T12:04:14;1.70;;;1.00;;
11598;SDS011;5855;48.840;9.188;2022-07-18T12:06:44;2.25;;;1.00;;
11598;SDS011;5855;48.840;9.188;2022-07-18T12:09:11;2.47;;;1.00;;
11598;SDS011;5855;48.840;9.188;2022-07-18T12:11:38;1.10;;;1.00;;
11598;SDS011;5855;48.840;9.188;2022-07-18T12:14:13;1.95;;;0.88;;
11598;SDS011;5855;48.840;9.188;2022-07-18T12:16:43;1.90;;;0.88;;
11598;SDS011;5855;48.840;9.188;2022-07-18T12:19:12;1.10;;;1.00;;
11598;SDS011;5855;48.840;9.188;2022-07-18T12:21:51;1.00;;;0.95;;
11598;SDS011;5855;48.840;9.188;2022-07-18T12:24:19;1.00;;;0.80;;
11598;SDS011;5855;48.840;9.188;2022-07-18T12:27:07;5.22;;;1.00;;
11598;SDS011;5855;48.840;9.188;2022-07-18T12:29:58;0.95;;;0.80;;
11598;SDS011;5855;48.840;9.188;2022-07-18T12:32:43;2.63;;;1.00;;
11598;SDS011;5855;48.840;9.188;2022-07-18T12:35:12;0.93;;;0.82;;
11598;SDS011;5855;48.840;9.188;2022-07-18T12:37:50;1.58;;;0.98;;
11598;SDS011;5855;48.840;9.188;2022-07-18T12:40:18;0.80;;;0.77;;
11598;SDS011;5855;48.840;9.188;2022-07-18T12:42:46;2.70;;;0.80;;
11598;SDS011;5855;48.840;9.188;2022-07-18T12:45:13;1.67;;;0.80;;
11598;SDS011;5855;48.840;9.188;2022-07-18T12:47:40;2.80;;;0.80;;
11598;SDS011;5855;48.840;9.188;2022-07-18T12:50:08;1.17;;;0.90;;
11598;SDS011;5855;48.840;9.188;2022-07-18T12:52:35;0.60;;;0.60;;
11598;SDS011;5855;48.840;9.188;2022-07-18T12:55:02;1.20;;;0.90;;
11598;SDS011;5855;48.840;9.188;2022-07-18T12:57:30;1.75;;;0.80;;
11598;SDS011;5855;48.840;9.188;2022-07-18T12:59:57;0.70;;;0.70;;
11598;SDS011;5855;48.840;9.188;2022-07-18T13:02:23;1.20;;;0.98;;
11598;SDS011;5855;48.840;9.188;2022-07-18T13:04:50;0.93;;;0.70;;
11598;SDS011;5855;48.840;9.188;2022-07-18T13:07:19;0.85;;;0.80;;
11598;SDS011;5855;48.840;9.188;2022-07-18T13:09:46;1.58;;;0.70;;
11598;SDS011;5855;48.840;9.188;2022-07-18T13:12:12;2.63;;;0.88;;
11598;SDS011;5855;48.840;9.188;2022-07-18T13:14:40;0.80;;;0.80;;
11598;SDS011;5855;48.840;9.188;2022-07-18T13:17:07;2.60;;;0.90;;
11598;SDS011;5855;48.840;9.188;2022-07-18T13:19:34;2.13;;;1.00;;
11598;SDS011;5855;48.840;9.188;2022-07-18T13:22:00;1.67;;;0.80;;
11598;SDS011;5855;48.840;9.188;2022-07-18T13:24:29;2.60;;;0.80;;
11598;SDS011;5855;48.840;9.188;2022-07-18T13:26:56;1.95;;;0.77;;
11598;SDS011;5855;48.840;9.188;2022-07-18T13:29:23;1.88;;;0.80;;
11598;SDS011;5855;48.840;9.188;2022-07-18T13:31:50;1.10;;;0.60;;
11598;SDS011;5855;48.840;9.188;2022-07-18T13:34:17;1.35;;;0.88;;
11598;SDS011;5855;48.840;9.188;2022-07-18T13:36:46;0.70;;;0.70;;
11598;SDS011;5855;48.840;9.188;2022-07-18T13:39:16;2.25;;;0.90;;
11598;SDS011;5855;48.840;9.188;2022-07-18T13:41:45;1.65;;;0.70;;
11598;SDS011;5855;48.840;9.188;2022-07-18T13:44:12;2.53;;;0.93;;
11598;SDS011;5855;48.840;9.188;2022-07-18T13:46:40;1.92;;;0.80;;
11598;SDS011;5855;48.840;9.188;2022-07-18T13:49:08;0.70;;;0.70;;
11598;SDS011;5855;48.840;9.188;2022-07-18T13:51:36;1.05;;;0.82;;
11598;SDS011;5855;48.840;9.188;2022-07-18T13:54:03;0.82;;;0.70;;
11598;SDS011;5855;48.840;9.188;2022-07-18T13:56:31;2.25;;;0.65;;
11598;SDS011;5855;48.840;9.188;2022-07-18T13:58:59;1.05;;;0.65;;
11598;SDS011;5855;48.840;9.188;2022-07-18T14:01:26;2.67;;;0.70;;
11598;SDS011;5855;48.840;9.188;2022-07-18T14:03:53;1.70;;;0.70;;
11598;SDS011;5855;48.840;9.188;2022-07-18T14:06:20;1.77;;;0.60;;
11598;SDS011;5855;48.840;9.188;2022-07-18T14:08:47;1.88;;;0.60;;
11598;SDS011;5855;48.840;9.188;2022-07-18T14:11:13;0.55;;;0.52;;
11598;SDS011;5855;48.840;9.188;2022-07-18T14:13:40;0.50;;;0.50;;
11598;SDS011;5855;48.840;9.188;2022-07-18T14:16:09;0.57;;;0.57;;
11598;SDS011;5855;48.840;9.188;2022-07-18T14:18:36;1.17;;;0.63;;
11598;SDS011;5855;48.840;9.188;2022-07-18T14:21:03;2.63;;;0.70;;
11598;SDS011;5855;48.840;9.188;2022-07-18T14:23:30;1.83;;;0.60;;
11598;SDS011;5855;48.840;9.188;2022-07-18T14:25:57;1.92;;;0.60;;
11598;SDS011;5855;48.840;9.188;2022-07-18T14:28:23;0.93;;;0.60;;
11598;SDS011;5855;48.840;9.188;2022-07-18T14:30:50;0.65;;;0.52;;
11598;SDS011;5855;48.840;9.188;2022-07-18T14:33:19;1.70;;;0.55;;
11598;SDS011;5855;48.840;9.188;2022-07-18T14:35:45;1.02;;;0.60;;
11598;SDS011;5855;48.840;9.188;2022-07-18T14:38:12;1.25;;;0.70;;
11598;SDS011;5855;48.840;9.188;2022-07-18T14:40:39;0.57;;;0.50;;
11598;SDS011;5855;48.840;9.188;2022-07-18T14:43:06;1.17;;;0.60;;
11598;SDS011;5855;48.840;9.188;2022-07-18T14:45:33;0.70;;;0.60;;
11598;SDS011;5855;48.840;9.188;2022-07-18T14:48:00;2.72;;;0.77;;
11598;SDS011;5855;48.840;9.188;2022-07-18T14:50:29;1.30;;;0.73;;
11598;SDS011;5855;48.840;9.188;2022-07-18T14:52:55;1.98;;;0.60;;
11598;SDS011;5855;48.840;9.188;2022-07-18T14:55:22;0.50;;;0.50;;
11598;SDS011;5855;48.840;9.188;2022-07-18T14:57:49;1.50;;;0.60;;
11598;SDS011;5855;48.840;9.188;2022-07-18T15:00:16;1.17;;;0.60;;
11598;SDS011;5855;48.840;9.188;2022-07-18T15:02:43;0.40;;;0.40;;
11598;SDS011;5855;48.840;9.188;2022-07-18T15:05:10;2.58;;;0.70;;
11598;SDS011;5855;48.840;9.188;2022-07-18T15:07:39;4.60;;;0.73;;
11598;SDS011;5855;48.840;9.188;2022-07-18T15:10:06;0.52;;;0.52;;
11598;SDS011;5855;48.840;9.188;2022-07-18T15:12:34;1.40;;;0.70;;
11598;SDS011;5855;48.840;9.188;2022-07-18T15:15:01;1.00;;;0.70;;